createdAt,value
2018-07-26T00:00:17.597Z,3.40
2018-07-26T00:06:23.080Z,3.33
2018-07-26T00:12:28.542Z,3.70
2018-07-26T00:18:34.059Z,3.63
2018-07-26T00:24:39.589Z,3.90
2018-07-26T00:30:45.137Z,3.13
2018-07-26T00:36:50.683Z,3.63
2018-07-26T00:42:56.125Z,2.90
2018-07-26T00:49:01.659Z,4.03
2018-07-26T00:55:07.158Z,3.70
2018-07-26T01:01:12.651Z,2.97
2018-07-26T01:07:18.121Z,3.70
2018-07-26T01:13:23.606Z,4.20
2018-07-26T01:19:29.155Z,3.30
2018-07-26T01:25:34.660Z,3.80
2018-07-26T01:31:40.123Z,3.33
2018-07-26T01:37:45.626Z,4.73
2018-07-26T01:44:08.047Z,3.70
2018-07-26T01:50:13.517Z,3.87
2018-07-26T01:56:19.085Z,3.30
2018-07-26T02:02:24.582Z,3.80
2018-07-26T02:08:30.084Z,3.50
2018-07-26T02:14:35.790Z,3.60
2018-07-26T02:20:41.290Z,3.30
2018-07-26T02:26:46.771Z,4.10
2018-07-26T02:32:52.280Z,4.40
2018-07-26T02:38:57.842Z,4.03
2018-07-26T02:45:03.366Z,4.33
2018-07-26T02:51:08.897Z,5.07
2018-07-26T02:57:14.429Z,4.07
2018-07-26T03:03:19.968Z,3.43
2018-07-26T03:09:25.437Z,4.90
2018-07-26T03:15:30.920Z,7.07
2018-07-26T03:21:36.435Z,3.90
2018-07-26T03:27:41.962Z,4.20
2018-07-26T03:33:47.414Z,4.80
2018-07-26T03:39:52.878Z,4.20
2018-07-26T03:45:58.415Z,3.87
2018-07-26T03:52:03.963Z,3.93
2018-07-26T03:58:09.549Z,4.20
2018-07-26T04:04:15.017Z,4.40
2018-07-26T04:10:21.126Z,4.27
2018-07-26T04:16:27.038Z,4.57
2018-07-26T04:22:32.544Z,4.10
2018-07-26T04:28:38.283Z,4.70
2018-07-26T04:34:44.130Z,4.23
2018-07-26T04:40:50.014Z,4.20
2018-07-26T04:46:55.938Z,4.37
2018-07-26T04:53:01.830Z,3.83
2018-07-26T04:59:07.668Z,4.30
2018-07-26T05:05:13.493Z,4.43
2018-07-26T05:11:19.406Z,5.00
2018-07-26T05:17:25.367Z,5.53
2018-07-26T05:23:31.229Z,5.93
2018-07-26T05:29:37.094Z,5.07
2018-07-26T05:35:42.986Z,4.60
2018-07-26T05:41:48.778Z,5.83
2018-07-26T05:47:54.694Z,4.80
2018-07-26T05:54:00.489Z,4.00
2018-07-26T06:00:10.880Z,5.20
2018-07-26T06:06:16.403Z,4.10
2018-07-26T06:12:21.897Z,4.40
2018-07-26T06:18:27.413Z,4.30
2018-07-26T06:24:32.982Z,4.70
2018-07-26T06:30:38.534Z,4.80
2018-07-26T06:36:44.017Z,4.00
2018-07-26T06:42:49.549Z,5.20
2018-07-26T06:48:55.024Z,4.40
2018-07-26T06:55:00.518Z,4.60
2018-07-26T07:01:06.406Z,4.27
2018-07-26T07:07:12.303Z,4.80
2018-07-26T07:13:18.091Z,4.50
2018-07-26T07:19:24.035Z,4.17
2018-07-26T07:25:29.570Z,4.60
2018-07-26T07:31:35.308Z,3.60
2018-07-26T07:37:41.169Z,4.10
2018-07-26T07:43:47.047Z,3.70
2018-07-26T07:49:52.883Z,4.10
2018-07-26T07:55:58.773Z,4.13
2018-07-26T08:02:04.692Z,3.97
2018-07-26T08:08:10.660Z,3.33
2018-07-26T08:14:16.517Z,4.20
2018-07-26T08:20:22.390Z,3.63
2018-07-26T08:26:28.284Z,3.77
2018-07-26T08:32:33.873Z,4.10
2018-07-26T08:38:39.358Z,3.70
2018-07-26T08:44:44.942Z,3.50
2018-07-26T08:50:51.074Z,3.50
2018-07-26T08:56:57.031Z,3.23
2018-07-26T09:03:02.897Z,3.77
2018-07-26T09:09:11.744Z,3.47
2018-07-26T09:15:17.702Z,3.50
2018-07-26T09:21:23.679Z,3.63
2018-07-26T09:27:29.616Z,3.40
2018-07-26T09:33:35.555Z,3.37
2018-07-26T09:39:41.458Z,3.10
2018-07-26T09:45:47.304Z,3.40
2018-07-26T09:51:53.149Z,3.00
2018-07-26T09:57:59.064Z,3.00
2018-07-26T10:04:04.954Z,3.20
2018-07-26T10:10:10.805Z,3.00
2018-07-26T10:16:16.701Z,3.20
2018-07-26T10:22:22.657Z,3.40
2018-07-26T10:28:28.572Z,3.63
2018-07-26T10:34:34.484Z,4.00
2018-07-26T10:40:40.436Z,3.53
2018-07-26T10:46:46.315Z,4.33
2018-07-26T10:52:52.170Z,3.60
2018-07-26T10:58:57.992Z,3.83
2018-07-26T11:05:03.920Z,3.57
2018-07-26T11:11:09.809Z,3.30
2018-07-26T11:17:15.647Z,2.97
2018-07-26T11:23:21.544Z,2.67
2018-07-26T11:29:27.518Z,2.47
2018-07-26T11:35:33.369Z,2.90
2018-07-26T11:41:39.318Z,2.80
2018-07-26T11:47:45.222Z,2.80
2018-07-26T11:53:51.101Z,2.70
2018-07-26T11:59:56.976Z,2.80
2018-07-26T12:06:02.912Z,3.30
2018-07-26T12:12:09.239Z,2.60
2018-07-26T12:18:15.149Z,2.40
2018-07-26T12:24:21.028Z,2.73
2018-07-26T12:30:27.114Z,2.93
2018-07-26T12:36:32.969Z,2.80
2018-07-26T12:42:38.904Z,2.70
2018-07-26T12:48:44.862Z,2.90
2018-07-26T12:54:51.316Z,3.00
2018-07-26T13:00:56.904Z,2.80
2018-07-26T13:07:02.800Z,3.30
2018-07-26T13:13:08.768Z,2.70
2018-07-26T13:19:14.740Z,2.63
2018-07-26T13:25:20.755Z,2.80
2018-07-26T13:31:26.690Z,2.63
2018-07-26T13:37:32.565Z,3.10
2018-07-26T13:43:38.535Z,2.63
2018-07-26T13:49:44.398Z,2.60
2018-07-26T13:55:50.309Z,2.57
2018-07-26T14:01:56.408Z,3.00
2018-07-26T14:08:02.263Z,2.90
2018-07-26T14:14:08.660Z,3.00
2018-07-26T14:20:14.542Z,3.30
2018-07-26T14:26:20.497Z,2.90
2018-07-26T14:32:26.426Z,2.90
2018-07-26T14:38:32.367Z,2.90
2018-07-26T14:44:38.263Z,2.57
2018-07-26T14:50:44.233Z,2.83
2018-07-26T14:56:50.045Z,2.83
2018-07-26T15:02:55.930Z,2.43
2018-07-26T15:09:01.658Z,2.90
2018-07-26T15:15:08.683Z,3.00
2018-07-26T15:21:14.611Z,2.57
2018-07-26T15:27:20.504Z,2.40
2018-07-26T15:33:26.411Z,2.30
2018-07-26T15:39:32.394Z,2.80
2018-07-26T15:45:38.376Z,3.20
2018-07-26T15:51:44.328Z,2.40
2018-07-26T15:57:50.184Z,2.40
2018-07-26T16:03:56.058Z,2.60
2018-07-26T16:10:01.938Z,3.47
2018-07-26T16:16:07.796Z,2.87
2018-07-26T16:22:13.733Z,2.60
2018-07-26T16:28:19.677Z,2.77
2018-07-26T16:34:25.588Z,3.00
2018-07-26T16:40:31.457Z,2.70
2018-07-26T16:46:37.206Z,2.77
2018-07-26T16:52:43.060Z,2.80
2018-07-26T16:58:49.064Z,3.10
2018-07-26T17:04:55.052Z,2.90
2018-07-26T17:11:01.006Z,3.10
2018-07-26T17:17:06.923Z,2.80
2018-07-26T17:23:12.861Z,3.67
2018-07-26T17:29:18.810Z,3.13
2018-07-26T17:35:24.618Z,3.00
2018-07-26T17:41:30.597Z,3.70
2018-07-26T17:47:36.307Z,3.13
2018-07-26T17:53:42.195Z,3.60
2018-07-26T17:59:48.107Z,3.23
2018-07-26T18:05:53.975Z,4.00
2018-07-26T18:11:59.726Z,3.10
2018-07-26T18:18:05.547Z,3.40
2018-07-26T18:24:11.439Z,4.27
2018-07-26T18:30:17.387Z,3.40
2018-07-26T18:36:23.298Z,3.30
2018-07-26T18:42:29.288Z,3.83
2018-07-26T18:48:35.156Z,3.67
2018-07-26T18:54:40.996Z,3.30
2018-07-26T19:00:46.856Z,3.60
2018-07-26T19:06:52.739Z,3.83
2018-07-26T19:12:58.606Z,3.60
2018-07-26T19:19:04.526Z,3.63
2018-07-26T19:25:11.231Z,3.60
2018-07-26T19:31:17.133Z,4.00
2018-07-26T19:37:22.982Z,3.63
2018-07-26T19:43:28.883Z,3.90
2018-07-26T19:49:34.705Z,3.80
2018-07-26T19:55:40.444Z,3.20
2018-07-26T20:01:45.937Z,3.77
2018-07-26T20:07:51.453Z,3.60
2018-07-26T20:13:56.960Z,3.80
2018-07-26T20:20:02.614Z,4.10
2018-07-26T20:26:08.156Z,3.73
2018-07-26T20:32:13.622Z,3.30
2018-07-26T20:38:19.161Z,3.83
2018-07-26T20:44:24.690Z,3.43
2018-07-26T20:50:30.160Z,4.10
2018-07-26T20:56:35.767Z,4.00
2018-07-26T21:02:41.675Z,3.93
2018-07-26T21:08:47.157Z,3.97
2018-07-26T21:14:52.650Z,3.57
2018-07-26T21:20:59.073Z,3.47
2018-07-26T21:27:04.837Z,4.23
2018-07-26T21:33:10.344Z,3.90
2018-07-26T21:39:15.863Z,4.07
2018-07-26T21:45:21.351Z,3.57
2018-07-26T21:51:27.162Z,3.83
2018-07-26T21:57:32.654Z,4.13
2018-07-26T22:03:38.299Z,4.40
2018-07-26T22:09:44.230Z,3.80
2018-07-26T22:15:51.357Z,4.20
2018-07-26T22:21:57.233Z,3.87
2018-07-26T22:28:03.178Z,3.97
2018-07-26T22:34:09.117Z,4.03
2018-07-26T22:40:15.024Z,4.40
2018-07-26T22:46:20.888Z,4.53
2018-07-26T22:52:26.792Z,4.40
2018-07-26T22:58:32.627Z,4.90
2018-07-26T23:04:38.487Z,4.20
2018-07-26T23:10:44.334Z,4.50
2018-07-26T23:16:50.273Z,5.30
2018-07-26T23:22:56.902Z,4.90
2018-07-26T23:29:02.765Z,5.03
2018-07-26T23:35:09.115Z,4.87
2018-07-26T23:41:14.628Z,4.77
2018-07-26T23:47:20.142Z,4.90
2018-07-26T23:53:25.675Z,4.60
2018-07-26T23:59:31.148Z,4.67
